Webcam

2018/04/19 22:50 EBBR 192250Z 19004KT CAVOK 16/11 Q1024 NOSIG

Webcam

--- Refresh now ---